Flight Track Log - Related Links

Times and Time Zones

All times are in EDT time to prevent confusion due to time zone crossing. See the AMX682 flight status page for this flight to view local times or setup timezone preferences in your user account.

Time Position Orientation Groundspeed Altitude Reporting Facility
EDT Latitude Longitude Course Direction KTS MPH feet Rate Location/Type
Thu 09:01:17 PM 24.1050 -97.4430 12° North 418 481 39,000  Level FlightAware ADS-B
Thu 09:02:12 PM 24.2080 -97.4200 12° North 420 483 39,000  Level FlightAware ADS-B
Thu 09:02:52 PM 24.2720 -97.4050 12° North 420 483 39,000  Level FlightAware ADS-B
Thu 09:03:37 PM 24.3660 -97.3820 13° North 419 482 39,000  Level FlightAware ADS-B
Thu 09:04:12 PM 24.4280 -97.3670 12° North 419 482 39,000  Level FlightAware ADS-B
Thu 09:05:02 PM 24.5340 -97.3430 12° North 419 482 39,000  Level FlightAware ADS-B
Thu 09:05:37 PM 24.5970 -97.3280 12° North 420 483 39,000  Level FlightAware ADS-B
Thu 09:06:22 PM 24.6870 -97.3060 13° North 420 483 39,000  Level FlightAware ADS-B
Thu 09:07:07 PM 24.7700 -97.2870 12° North 420 483 39,000  Level FlightAware ADS-B
Thu 09:07:47 PM 24.8500 -97.2680 12° North 423 487 39,000  Level FlightAware ADS-B
Thu 09:08:32 PM 24.9360 -97.2470 12° North 424 488 39,000  Level FlightAware ADS-B
Thu 09:09:12 PM 25.0120 -97.2290 12° North 430 495 39,000  Level FlightAware ADS-B
Thu 09:09:57 PM 25.1000 -97.2080 12° North 437 503 39,000  Level FlightAware ADS-B
Thu 09:10:37 PM 25.1800 -97.1890 12° North 439 505 39,000  Level FlightAware ADS-B
Thu 09:11:17 PM 25.2590 -97.1700 12° North 443 510 39,000  Level FlightAware ADS-B
Thu 09:12:02 PM 25.3500 -97.1480 12° North 444 511 39,000  Level FlightAware ADS-B
Thu 09:12:42 PM 25.4320 -97.1290 12° North 444 511 39,000  Level FlightAware ADS-B
Thu 09:13:27 PM 25.5210 -97.1080 12° North 442 509 39,000  Level FlightAware ADS-B
Thu 09:14:07 PM 25.6040 -97.0880 12° North 438 504 39,000  Level FlightAware ADS-B
Thu 09:14:47 PM 25.6800 -97.0720 11° North 437 503 39,000  Level FlightAware ADS-B
Thu 09:15:32 PM 25.7730 -97.0520 11° North 438 504 39,000  Level FlightAware ADS-B
Thu 09:16:12 PM 25.8510 -97.0340 12° North 438 504 39,000  Level FlightAware ADS-B
Thu 09:16:57 PM 25.9400 -97.0140 11° North 438 504 39,000  Level FlightAware ADS-B
Thu 09:17:37 PM 26.0190 -96.9960 12° North 439 505 39,000  Level FlightAware ADS-B
Thu 09:18:17 PM 26.1000 -96.9760 13° North 441 507 39,000  Level FlightAware ADS-B
Thu 09:19:02 PM 26.1880 -96.9430 19° North 449 517 39,000  Level FlightAware ADS-B
Thu 09:19:42 PM 26.2660 -96.9090 21° North 448 516 39,000  Level FlightAware ADS-B
Thu 09:20:27 PM 26.3510 -96.8730 21° North 447 514 39,000  Level FlightAware ADS-B
Thu 09:20:35 PM 26.3712 -96.8641 22° Northeast 448 516 39,000  Level FlightAware ADS-B
Thu 09:21:07 PM 26.4280 -96.8400 21° North 446 513 39,000  Level FlightAware ADS-B
Thu 09:21:15 PM 26.4486 -96.8313 21° North 447 514 39,000  Level FlightAware ADS-B
Thu 09:22:20 PM 26.5754 -96.7770 21° North 447 514 39,000  Level FlightAware ADS-B
Thu 09:23:04 PM 26.6597 -96.7410 21° North 449 517 39,000  Level FlightAware ADS-B
Thu 09:24:23 PM 26.8142 -96.6745 21° North 450 518 39,000  Level FlightAware ADS-B
Thu 09:25:37 PM 26.9573 -96.6127 21° North 451 519 39,000  Level FlightAware ADS-B
Thu 09:26:10 PM 27.0221 -96.5846 21° North 454 522 39,000  Level FlightAware ADS-B
Thu 09:26:42 PM 27.0854 -96.5572 21° North 454 522 39,000  Level FlightAware ADS-B
Thu 09:27:28 PM 27.1753 -96.5183 21° North 456 525 39,000  Level FlightAware ADS-B
Thu 09:28:06 PM 27.2508 -96.4856 21° North 457 526 39,000  Level FlightAware ADS-B
Thu 09:28:38 PM 27.3149 -96.4578 21° North 458 527 39,000  Level FlightAware ADS-B
Thu 09:29:34 PM 27.4258 -96.4095 21° North 459 528 39,000  Level FlightAware ADS-B
Thu 09:30:06 PM 27.4894 -96.3817 21° North 461 531 39,000  Level FlightAware ADS-B
Thu 09:30:43 PM 27.5628 -96.3496 21° North 461 531 39,000  Level FlightAware ADS-B
Thu 09:31:19 PM 27.6332 -96.3187 21° North 461 531 39,000  Level FlightAware ADS-B
Thu 09:31:51 PM 27.6970 -96.2908 21° North 460 529 39,000  Level FlightAware ADS-B
Thu 09:32:23 PM 27.7618 -96.2625 21° North 459 528 39,000  Level FlightAware ADS-B
Thu 09:32:54 PM 27.8221 -96.2360 21° North 460 529 39,000  Level FlightAware ADS-B
Thu 09:33:25 PM 27.8850 -96.2083 21° North 458 527 39,000  Level FlightAware ADS-B
Thu 09:33:56 PM 27.9461 -96.1814 21° North 457 526 39,000  Level FlightAware ADS-B
Thu 09:34:32 PM 28.0163 -96.1506 21° North 456 525 39,000  Level FlightAware ADS-B
Thu 09:35:03 PM 28.0779 -96.1234 21° North 457 526 39,000  Level FlightAware ADS-B
Thu 09:35:33 PM 28.1369 -96.0973 21° North 455 524 39,000  Level FlightAware ADS-B
Thu 09:36:03 PM 28.1959 -96.0712 21° North 454 522 39,000  Level FlightAware ADS-B
Thu 09:36:34 PM 28.2562 -96.0445 21° North 452 520 39,000  Level FlightAware ADS-B
Thu 09:37:05 PM 28.3155 -96.0182 21° North 452 520 39,000  Level FlightAware ADS-B
Thu 09:37:37 PM 28.3779 -95.9906 21° North 451 519 39,000  Level FlightAware ADS-B
Thu 09:38:08 PM 28.4393 -95.9634 21° North 451 519 39,000  Level FlightAware ADS-B
Thu 09:38:39 PM 28.4986 -95.9369 21° North 451 519 39,000  Level FlightAware ADS-B
Thu 09:39:09 PM 28.5578 -95.9106 21° North 451 519 39,000  Level FlightAware ADS-B
Thu 09:39:40 PM 28.6179 -95.8838 21° North 451 519 39,000  Level FlightAware ADS-B
Thu 09:40:12 PM 28.6789 -95.8565 21° North 452 520 39,000  Level FlightAware ADS-B
Thu 09:40:42 PM 28.7387 -95.8298 21° North 452 520 39,000  Level FlightAware ADS-B
Thu 09:41:12 PM 28.7979 -95.8033 21° North 452 520 39,000  Level FlightAware ADS-B
Thu 09:41:44 PM 28.8593 -95.7757 21° North 453 521 39,000  Level FlightAware ADS-B
Thu 09:42:16 PM 28.9221 -95.7475 21° North 453 521 39,000  Level FlightAware ADS-B
Thu 09:42:47 PM 28.9825 -95.7204 21° North 453 521 39,000  Level FlightAware ADS-B
Thu 09:43:22 PM 29.0503 -95.6898 22° Northeast 455 524 39,000  Level FlightAware ADS-B
Thu 09:43:57 PM 29.1197 -95.6583 22° Northeast 454 522 39,000  Level FlightAware ADS-B
Thu 09:44:28 PM 29.1791 -95.6316 21° North 454 522 39,000  Level FlightAware ADS-B
Thu 09:45:04 PM 29.2504 -95.5994 22° Northeast 453 521 39,000  Level FlightAware ADS-B
Thu 09:45:47 PM 29.3330 -95.5621 21° North 453 521 39,000  Level FlightAware ADS-B
Thu 09:46:52 PM 29.4570 -95.5060 21° North 447 514 39,000  Level FlightAware ADS-B
Thu 09:47:32 PM 29.5330 -95.4720 21° North 446 513 39,000  Level FlightAware ADS-B
Thu 09:48:12 PM 29.6100 -95.4360 22° Northeast 446 513 39,000  Level FlightAware ADS-B
Thu 09:48:40 PM 29.6668 -95.4105 21° North 448 516 39,000  Level FlightAware ADS-B
Thu 09:49:10 PM 29.7248 -95.3841 22° Northeast 451 519 39,000  Level FlightAware ADS-B
Thu 09:49:40 PM 29.7836 -95.3572 22° Northeast 453 521 39,000  Level FlightAware ADS-B
Thu 09:50:11 PM 29.8428 -95.3300 22° Northeast 453 521 39,000  Level FlightAware ADS-B
Thu 09:50:42 PM 29.9041 -95.3020 22° Northeast 453 521 39,000  Level FlightAware ADS-B
Thu 09:51:12 PM 29.9630 -95.2749 22° Northeast 455 524 39,000  Level FlightAware ADS-B
Thu 09:51:43 PM 30.0235 -95.2472 22° Northeast 456 525 39,000  Level FlightAware ADS-B
Thu 09:52:13 PM 30.0831 -95.2200 22° Northeast 458 527 39,000  Level FlightAware ADS-B
Thu 09:52:44 PM 30.1434 -95.1920 22° Northeast 458 527 39,000  Level FlightAware ADS-B
Thu 09:53:14 PM 30.2032 -95.1644 22° Northeast 459 528 39,000  Level FlightAware ADS-B
Thu 09:53:46 PM 30.2648 -95.1358 22° Northeast 460 529 39,000  Level FlightAware ADS-B
Thu 09:54:17 PM 30.3272 -95.1070 22° Northeast 461 531 39,000  Level FlightAware ADS-B
Thu 09:54:49 PM 30.3913 -95.0772 22° Northeast 463 533 39,000  Level FlightAware ADS-B
Thu 09:55:21 PM 30.4541 -95.0482 22° Northeast 463 533 39,000  Level FlightAware ADS-B
Thu 09:55:53 PM 30.5192 -95.0181 22° Northeast 463 533 39,000  Level FlightAware ADS-B
Thu 09:56:27 PM 30.5855 -94.9871 22° Northeast 464 534 39,000  Level FlightAware ADS-B
Thu 09:56:57 PM 30.6465 -94.9588 22° Northeast 465 535 39,000  Level FlightAware ADS-B
Thu 09:57:28 PM 30.7067 -94.9307 22° Northeast 465 535 39,000  Level FlightAware ADS-B
Thu 09:57:58 PM 30.7671 -94.9025 22° Northeast 465 535 39,000  Level FlightAware ADS-B
Thu 09:58:28 PM 30.8277 -94.8742 22° Northeast 465 535 39,000  Level FlightAware ADS-B
Thu 09:58:59 PM 30.8887 -94.8456 22° Northeast 464 534 39,000  Level FlightAware ADS-B
Thu 09:59:29 PM 30.9486 -94.8174 22° Northeast 464 534 39,000  Level FlightAware ADS-B
Thu 09:59:59 PM 31.0090 -94.7891 22° Northeast 464 534 39,000  Level FlightAware ADS-B
Thu 10:00:29 PM 31.0684 -94.7611 22° Northeast 464 534 39,000  Level FlightAware ADS-B
Thu 10:01:00 PM 31.1290 -94.7325 22° Northeast 464 534 39,000  Level FlightAware ADS-B
Thu 10:01:15 PM 31.1600 -94.7167 24° Northeast 467 537 39,000  Level FlightAware ADS-B
Thu 10:01:53 PM 31.2311 -94.6696 30° Northeast 470 541 39,000  Level FlightAware ADS-B
Thu 10:02:25 PM 31.2904 -94.6288 30° Northeast 470 541 39,000  Level FlightAware ADS-B
Thu 10:02:57 PM 31.3450 -94.5910 31° Northeast 470 541 39,000  Level FlightAware ADS-B
Thu 10:03:11 PM 31.3779 -94.5683 30° Northeast 470 541 39,000  Level FlightAware ADS-B
Thu 10:04:01 PM 31.4711 -94.5035 31° Northeast 471 542 39,000  Level FlightAware ADS-B
Thu 10:05:08 PM 31.5958 -94.4170 31° Northeast 471 542 39,000  Level FlightAware ADS-B
Thu 10:05:39 PM 31.6553 -94.3756 31° Northeast 470 541 39,000  Level FlightAware ADS-B
Thu 10:06:09 PM 31.7116 -94.3365 31° Northeast 471 542 39,000  Level FlightAware ADS-B
Thu 10:06:48 PM 31.7828 -94.2864 31° Northeast 471 542 39,000  Level FlightAware ADS-B
Thu 10:07:16 PM 31.8365 -94.2502 30° Northeast 467 537 39,000  Level FlightAware ADS-B
Thu 10:07:31 PM 31.8657 -94.2352 24° Northeast 465 535 39,000  Level FlightAware ADS-B
Thu 10:08:01 PM 31.9265 -94.2086 20° North 464 534 39,000  Level FlightAware ADS-B
Thu 10:08:33 PM 31.9904 -94.1807 20° North 463 533 39,000  Level FlightAware ADS-B
Thu 10:09:08 PM 32.0615 -94.1494 20° North 462 532 39,000  Level FlightAware ADS-B
Thu 10:09:39 PM 32.1237 -94.1221 20° North 462 532 39,000  Level FlightAware ADS-B
Thu 10:10:19 PM 32.2029 -94.0874 20° North 462 532 39,000  Level FlightAware ADS-B
Thu 10:11:22 PM 32.3301 -94.0310 21° North 463 533 39,000  Level FlightAware ADS-B
Thu 10:12:02 PM 32.3950 -94.0030 20° North 462 532 39,000  Level FlightAware ADS-B
Thu 10:12:42 PM 32.4630 -93.9740 20° North 462 532 39,000  Level FlightAware ADS-B
Thu 10:13:22 PM 32.5310 -93.9440 20° North 462 532 39,000  Level FlightAware ADS-B
Thu 10:14:02 PM 32.5990 -93.9150 20° North 462 532 39,000  Level FlightAware ADS-B
Thu 10:14:57 PM 32.7540 -93.8430 21° North 468 539 39,000  Level FlightAware ADS-B
Thu 10:15:46 PM 32.8635 -93.7932 21° North 467 537 39,000  Level FlightAware ADS-B
Thu 10:16:22 PM 32.9260 -93.7660 20° North 465 535 39,000  Level FlightAware ADS-B
Thu 10:17:12 PM 33.0120 -93.7290 20° North 465 535 39,000  Level FlightAware ADS-B
Thu 10:17:52 PM 33.1040 -93.6850 22° Northeast 462 532 39,000  Level FlightAware ADS-B
Thu 10:18:27 PM 33.1750 -93.6540 20° North 461 531 39,000  Level FlightAware ADS-B
Thu 10:19:32 PM 33.3010 -93.5970 21° North 460 529 39,000  Level FlightAware ADS-B
Thu 10:20:12 PM 33.3690 -93.5680 20° North 460 529 39,000  Level FlightAware ADS-B
Thu 10:20:52 PM 33.4370 -93.5380 20° North 460 529 39,000  Level FlightAware ADS-B
Thu 10:21:32 PM 33.5050 -93.5080 20° North 460 529 39,000  Level FlightAware ADS-B
Thu 10:22:17 PM 33.6400 -93.4420 22° Northeast 466 536 39,000  Level FlightAware ADS-B
Thu 10:22:57 PM 33.7140 -93.4100 20° North 466 536 39,000  Level FlightAware ADS-B
Thu 10:23:37 PM 33.7830 -93.3800 20° North 466 536 39,000  Level FlightAware ADS-B
Thu 10:24:17 PM 33.8510 -93.3500 20° North 466 536 39,000  Level FlightAware ADS-B
Thu 10:24:57 PM 33.9200 -93.3190 20° North 466 536 39,000  Level FlightAware ADS-B
Thu 10:25:47 PM 34.0060 -93.2820 20° North 466 536 39,000  Level FlightAware ADS-B
Thu 10:26:27 PM 34.0750 -93.2510 20° North 466 536 39,000  Level FlightAware ADS-B
Thu 10:27:07 PM 34.1440 -93.2210 20° North 466 536 39,000  Level FlightAware ADS-B
Thu 10:27:47 PM 34.2130 -93.1910 20° North 466 536 39,000  Level FlightAware ADS-B
Thu 10:28:37 PM 34.2990 -93.1530 20° North 466 536 39,000  Level FlightAware ADS-B
Thu 10:29:17 PM 34.3680 -93.1220 20° North 466 536 39,000  Level FlightAware ADS-B
Thu 10:29:57 PM 34.4370 -93.0920 20° North 466 536 39,000  Level FlightAware ADS-B
Thu 10:30:37 PM 34.5060 -93.0620 20° North 466 536 39,000  Level FlightAware ADS-B
Thu 10:31:17 PM 34.5750 -93.0310 20° North 466 536 39,000  Level FlightAware ADS-B
Thu 10:31:57 PM 34.6440 -93.0010 20° North 466 536 39,000  Level FlightAware ADS-B
Thu 10:32:45 PM 34.9342 -92.8408 20° North 485 558 39,000  Level Kansas City Center
Thu 10:33:44 PM 35.0653 -92.7775 22° Northeast 475 547 39,000  Level Memphis Center
Thu 10:34:44 PM 35.1936 -92.7200 20° North 486 559 39,000  Level Memphis Center
Thu 10:35:44 PM 35.3053 -92.6597 24° Northeast 481 554 39,000  Level Memphis Center
Thu 10:36:44 PM 35.4336 -92.6019 20° North 476 548 39,000  Level Memphis Center
Thu 10:37:44 PM 35.5556 -92.5442 21° North 476 548 39,000  Level Memphis Center
Thu 10:38:44 PM 35.6839 -92.4836 21° North 476 548 39,000  Level Memphis Center
Thu 10:39:44 PM 35.8100 -92.4228 21° North 476 548 39,000  Level Memphis Center
Thu 10:40:44 PM 35.9361 -92.3644 21° North 476 548 39,000  Level Memphis Center
Thu 10:41:44 PM 36.0600 -92.3006 23° Northeast 476 548 39,000  Level Memphis Center
Thu 10:42:44 PM 36.1861 -92.2419 21° North 476 548 39,000  Level Memphis Center
Thu 10:43:44 PM 36.3122 -92.1806 21° North 476 548 39,000  Level Memphis Center
Thu 10:46:00 PM 36.5942 -92.0350 23° Northeast 482 555 39,000  Level Kansas City Center
Thu 10:47:02 PM 36.7208 -91.9733 21° North 485 558 39,000  Level Kansas City Center
Thu 10:48:03 PM 36.8472 -91.9108 22° Northeast 486 559 39,000  Level Kansas City Center
Thu 10:49:04 PM 36.9736 -91.8481 22° Northeast 487 560 39,000  Level Kansas City Center
Thu 10:50:06 PM 37.1256 -91.7733 21° North 487 560 39,000  Level Kansas City Center
Thu 10:51:07 PM 37.2508 -91.7103 22° Northeast 486 559 39,000  Level Kansas City Center
Thu 10:52:08 PM 37.3769 -91.6472 22° Northeast 487 560 39,000  Level Kansas City Center
Thu 10:53:09 PM 37.5025 -91.5853 21° North 486 559 39,000  Level Kansas City Center
Thu 10:54:10 PM 37.6278 -91.5211 22° Northeast 487 560 39,000  Level Kansas City Center
Thu 10:59:22 PM 38.2880 -91.1830 22° Northeast 489 563 39,000  Level FlightAware ADS-B
Thu 11:00:07 PM 38.3850 -91.1330 22° Northeast 488 562 39,000  Level FlightAware ADS-B
Thu 11:00:47 PM 38.4730 -91.0870 22° Northeast 488 562 39,000  Level FlightAware ADS-B
Thu 11:01:32 PM 38.5640 -91.0400 22° Northeast 487 560 39,000 -353 Level FlightAware ADS-B
Thu 11:02:12 PM 38.6470 -90.9960 22° Northeast 487 560 38,500 -1,125 Descending FlightAware ADS-B
Thu 11:02:52 PM 38.7270 -90.9540 22° Northeast 492 566 37,500 -1,000 Descending FlightAware ADS-B
Thu 11:03:42 PM 38.8260 -90.9010 23° Northeast 494 568 37,000 -1,260 Descending FlightAware ADS-B
Thu 11:04:32 PM 38.9440 -90.8360 23° Northeast 500 575 35,400 -1,333 Descending FlightAware ADS-B
Thu 11:05:12 PM 39.0280 -90.7900 23° Northeast 496 571 35,000 -706 Descending FlightAware ADS-B
Thu 11:05:57 PM 39.1210 -90.7390 23° Northeast 493 567 34,400 -695 Descending FlightAware ADS-B
Thu 11:06:47 PM 39.2230 -90.6850 22° Northeast 492 566 33,900 -840 Descending FlightAware ADS-B
Thu 11:07:37 PM 39.3330 -90.6230 24° Northeast 490 564 33,000 -600 Descending FlightAware ADS-B
Thu 11:08:17 PM 39.4120 -90.5800 23° Northeast 490 564 33,000  Level FlightAware ADS-B
Thu 11:08:57 PM 39.4970 -90.5330 23° Northeast 488 562 33,000  Level FlightAware ADS-B
Thu 11:09:42 PM 39.5940 -90.4790 23° Northeast 489 563 33,000  Level FlightAware ADS-B
Thu 11:10:17 PM 39.6620 -90.4410 23° Northeast 489 563 33,000  Level FlightAware ADS-B
Thu 11:10:57 PM 39.7500 -90.3920 23° Northeast 487 560 33,000  Level FlightAware ADS-B
Thu 11:11:42 PM 39.8350 -90.3450 23° Northeast 487 560 33,000  Level FlightAware ADS-B
Thu 11:12:22 PM 39.9250 -90.2940 23° Northeast 482 555 33,000  Level FlightAware ADS-B
Thu 11:13:02 PM 40.0050 -90.2500 23° Northeast 475 547 33,000  Level FlightAware ADS-B
Thu 11:13:47 PM 40.0940 -90.1990 24° Northeast 475 547 33,000  Level FlightAware ADS-B
Thu 11:14:27 PM 40.1780 -90.1520 23° Northeast 474 545 33,000  Level FlightAware ADS-B
Thu 11:15:07 PM 40.2540 -90.1090 23° Northeast 476 548 33,000  Level FlightAware ADS-B
Thu 11:15:52 PM 40.3500 -90.0550 23° Northeast 475 547 33,000  Level FlightAware ADS-B
Thu 11:16:32 PM 40.4250 -90.0070 26° Northeast 476 548 33,000  Level FlightAware ADS-B
Thu 11:17:17 PM 40.5030 -89.9270 38° Northeast 475 547 33,000  Level FlightAware ADS-B
Thu 11:17:57 PM 40.5700 -89.8470 42° Northeast 474 545 33,000 -150 Level FlightAware ADS-B
Thu 11:18:37 PM 40.6310 -89.7750 42° Northeast 471 542 32,800 -1,553 Descending FlightAware ADS-B
Thu 11:19:22 PM 40.7060 -89.6850 42° Northeast 469 540 30,800 -2,400 Descending FlightAware ADS-B
Thu 11:20:02 PM 40.7680 -89.6110 42° Northeast 460 529 29,400 -2,259 Descending FlightAware ADS-B
Thu 11:20:47 PM 40.8420 -89.5240 42° Northeast 447 514 27,600 -2,188 Descending FlightAware ADS-B
Thu 11:21:27 PM 40.9000 -89.4540 42° Northeast 425 489 26,300 -1,976 Descending FlightAware ADS-B
Thu 11:22:12 PM 40.9610 -89.3800 42° Northeast 417 480 24,800 -2,047 Descending FlightAware ADS-B
Thu 11:22:52 PM 41.0200 -89.3080 43° Northeast 409 471 23,400 -2,100 Descending FlightAware ADS-B
Thu 11:23:32 PM 41.0760 -89.2400 42° Northeast 404 465 22,000 -2,047 Descending FlightAware ADS-B
Thu 11:24:17 PM 41.1350 -89.1690 42° Northeast 392 451 20,500 -1,906 Descending FlightAware ADS-B
Thu 11:24:57 PM 41.1890 -89.1050 42° Northeast 373 429 19,300 -1,906 Descending FlightAware ADS-B
Thu 11:25:42 PM 41.2460 -89.0340 43° Northeast 365 420 17,800 -1,976 Descending FlightAware ADS-B
Thu 11:26:22 PM 41.2960 -88.9730 42° Northeast 363 418 16,500 -1,976 Descending FlightAware ADS-B
Thu 11:27:07 PM 41.3500 -88.9070 43° Northeast 353 406 15,000 -1,976 Descending FlightAware ADS-B
Thu 11:27:47 PM 41.4000 -88.8470 42° Northeast 348 400 13,700 -1,800 Descending FlightAware ADS-B
Thu 11:28:27 PM 41.4430 -88.7940 43° Northeast 345 397 12,600 -1,412 Descending FlightAware ADS-B
Thu 11:29:12 PM 41.4970 -88.7270 43° Northeast 321 369 11,700 -918 Descending FlightAware ADS-B
Thu 11:29:52 PM 41.5290 -88.6670 55° Northeast 297 342 11,300 -675 Descending FlightAware ADS-B
Thu 11:30:32 PM 41.5540 -88.6020 63° Northeast 291 335 10,800 -353 Descending FlightAware ADS-B
Thu 11:31:17 PM 41.5820 -88.5320 62° Northeast 294 338 10,800 -282 Level FlightAware ADS-B
Thu 11:31:57 PM 41.6100 -88.4660 60° Northeast 296 341 10,400 -1,029 Descending FlightAware ADS-B
Thu 11:32:27 PM 41.6340 -88.4240 53° Northeast 297 342 9,600 -1,527 Descending FlightAware ADS-B
Thu 11:32:52 PM 41.6550 -88.3880 52° Northeast 293 337 9,000 -1,309 Descending FlightAware ADS-B
Thu 11:33:22 PM 41.6800 -88.3450 52° Northeast 285 328 8,400 -1,400 Descending FlightAware ADS-B
Thu 11:33:52 PM 41.7050 -88.3030 51° Northeast 288 331 7,600 -1,500 Descending FlightAware ADS-B
Thu 11:34:02 PM 41.7160 -88.2920 37° Northeast 291 335 7,400 -720 Descending FlightAware ADS-B
Thu 11:34:17 PM 41.7340 -88.2840 18° North 289 333 7,300 -600 Descending FlightAware ADS-B
Thu 11:34:32 PM 41.7560 -88.2850 358° North 283 326 7,100 -750 Descending FlightAware ADS-B
Thu 11:34:57 PM 41.7860 -88.2880 356° North 271 312 6,800 -327 Descending FlightAware ADS-B
Thu 11:35:27 PM 41.8220 -88.2910 356° North 240 276 6,800 -500 Level FlightAware ADS-B
Thu 11:35:57 PM 41.8540 -88.2940 356° North 227 261 6,300 -1,091 Descending FlightAware ADS-B
Thu 11:36:22 PM 41.8800 -88.2970 355° North 226 260 5,800 -1,200 Descending FlightAware ADS-B
Thu 11:36:52 PM 41.9110 -88.3000 356° North 224 258 5,200 -1,000 Descending FlightAware ADS-B
Thu 11:37:22 PM 41.9420 -88.3030 356° North 224 258 4,800 -436 Descending FlightAware ADS-B
Thu 11:37:47 PM 41.9680 -88.3060 355° North 224 258 4,800 -462 Level FlightAware ADS-B
Thu 11:38:27 PM 42.0030 -88.2880 21° North 198 228 4,300 -720 Descending FlightAware ADS-B
Thu 11:38:37 PM 42.0040 -88.2770 83° East 189 217 4,200 -667 Descending FlightAware ADS-B
Thu 11:39:12 PM 41.9940 -88.2390 109° East 177 204 3,800 -400 Descending FlightAware ADS-B
Thu 11:39:37 PM 41.9850 -88.2160 118° Southeast 175 201 3,800  Level FlightAware ADS-B
Thu 11:40:07 PM 41.9740 -88.1840 115° Southeast 173 199 3,800 -100 Level FlightAware ADS-B
Thu 11:40:37 PM 41.9680 -88.1570 107° East 164 189 3,700 -514 Descending FlightAware ADS-B
Thu 11:41:17 PM 41.9680 -88.1170 90° East 161 185 3,200 -738 Descending FlightAware ADS-B
Thu 11:41:42 PM 41.9680 -88.0930 90° East 160 184 2,900 -873 Descending FlightAware ADS-B
Thu 11:42:12 PM 41.9690 -88.0640 87° East 150 173 2,400 -900 Descending FlightAware ADS-B
Thu 11:42:42 PM 41.9690 -88.0370 90° East 131 151 2,000 -764 Descending FlightAware ADS-B
Thu 11:43:07 PM 41.9690 -88.0170 90° East 129 148 1,700 -667 Descending FlightAware ADS-B
Thu 11:43:27 PM 41.9690 -88.0010 90° East 127 146 1,500 -700 Descending FlightAware ADS-B
Thu 11:44:07 PM 41.9690 -87.9710 90° East 127 146 1,000 -646 Descending FlightAware ADS-B
Thu 11:44:32 PM 41.9690 -87.9510 90° East 130 150 800 -655 Descending FlightAware ADS-B
Thu 11:45:02 PM 41.9690 -87.9270 90° East 128 147 400 -436 Descending FlightAware ADS-B
Thu 11:45:27 PM 41.9690 -87.9070 90° East 128 147 400  Level FlightAware ADS-B

Login

Don't have an account? Register now (free) for customized features, flight alerts, and more!